Time;durP1;ratioP1;P1;durP2;ratioP2;P2;SDS_P1;SDS_P2;PMS_P1;PMS_P2;Temp;Humidity;BMP_temperature;BMP_pressure;BME280_temperature;BME280_humidity;BME280_pressure;Samples;Min_cycle;Max_cycle;Signal;HPM_P1;HPM_P2
2024/02/25 00:02:16;;;;;;;0.50;0.50;;;19.30;37.80;;;;;;8365965;28;19963;-54
2024/02/25 00:06:16;;;;;;;0.40;0.40;;;19.30;37.80;;;;;;8364583;28;20048;-54
2024/02/25 00:10:17;;;;;;;0.70;0.60;;;19.30;37.80;;;;;;8365914;28;20033;-54
2024/02/25 00:14:18;;;;;;;1.00;0.60;;;19.10;39.00;;;;;;8365537;28;20449;-54
2024/02/25 00:18:19;;;;;;;0.60;0.60;;;19.10;39.40;;;;;;8365407;28;20138;-55
2024/02/25 00:22:19;;;;;;;0.50;0.50;;;19.10;38.80;;;;;;8364466;28;20029;-55
2024/02/25 00:26:20;;;;;;;0.65;0.50;;;19.10;38.50;;;;;;8364504;28;20060;-53
2024/02/25 00:30:21;;;;;;;0.98;0.70;;;19.20;38.30;;;;;;8365161;28;20368;-53
2024/02/25 00:34:21;;;;;;;0.50;0.50;;;19.20;38.10;;;;;;8365217;28;20040;-56
2024/02/25 00:38:22;;;;;;;0.82;0.57;;;19.20;38.00;;;;;;8364617;28;20437;-55
2024/02/25 00:42:23;;;;;;;0.75;0.60;;;19.20;38.00;;;;;;8364957;28;20445;-53
2024/02/25 00:46:24;;;;;;;0.60;0.50;;;19.20;37.90;;;;;;8364623;28;20037;-55
2024/02/25 00:50:24;;;;;;;0.60;0.57;;;19.20;37.80;;;;;;8364584;28;20097;-55
2024/02/25 00:54:25;;;;;;;0.57;0.50;;;19.20;37.70;;;;;;8364748;28;20116;-54
2024/02/25 00:58:26;;;;;;;0.60;0.60;;;19.20;37.70;;;;;;8363859;28;20040;-55
2024/02/25 01:02:26;;;;;;;0.70;0.50;;;19.10;39.10;;;;;;8363723;28;20025;-54
2024/02/25 01:06:27;;;;;;;0.55;0.55;;;19.00;39.30;;;;;;8363940;28;20060;-50
2024/02/25 01:10:28;;;;;;;0.63;0.50;;;19.10;38.70;;;;;;8363800;28;20040;-50
2024/02/25 01:14:29;;;;;;;0.73;0.50;;;19.10;38.40;;;;;;8363729;28;20045;-50
2024/02/25 01:18:33;;;;;;;0.50;0.50;;;19.10;38.20;;;;;;8363606;28;20120;-50
2024/02/25 01:22:34;;;;;;;0.70;0.50;;;19.20;38.10;;;;;;8363417;28;20644;-50
2024/02/25 01:26:39;;;;;;;0.50;0.50;;;19.20;38.00;;;;;;8362181;28;20120;-52
2024/02/25 01:30:40;;;;;;;0.35;0.35;;;19.20;37.90;;;;;;8363373;28;20418;-49
2024/02/25 01:34:41;;;;;;;0.70;0.60;;;19.20;37.80;;;;;;8361989;28;20052;-50
2024/02/25 01:38:42;;;;;;;0.50;0.50;;;19.20;37.80;;;;;;8362934;28;20036;-50
2024/02/25 01:42:42;;;;;;;0.88;0.50;;;19.20;37.70;;;;;;8362876;28;20107;-51
2024/02/25 01:46:45;;;;;;;0.45;0.45;;;19.20;38.10;;;;;;8362796;28;20399;-51
2024/02/25 01:50:46;;;;;;;0.63;0.50;;;19.10;39.10;;;;;;8362566;28;20466;-50
2024/02/25 01:54:48;;;;;;;0.60;0.50;;;19.00;39.20;;;;;;8362541;28;20116;-53
2024/02/25 01:58:52;;;;;;;0.73;0.50;;;19.10;38.60;;;;;;8362397;28;20029;-51
2024/02/25 02:02:53;;;;;;;0.50;0.50;;;19.10;38.30;;;;;;8362217;28;20033;-52
2024/02/25 02:06:55;;;;;;;0.60;0.47;;;19.10;38.20;;;;;;8360769;28;20123;-50
2024/02/25 02:10:56;;;;;;;0.98;0.57;;;19.20;38.10;;;;;;8362568;28;20463;-50
2024/02/25 02:14:57;;;;;;;0.65;0.60;;;19.20;38.00;;;;;;8361814;28;20041;-52
2024/02/25 02:18:57;;;;;;;0.60;0.60;;;19.20;37.90;;;;;;8361629;28;20076;-49
2024/02/25 02:22:58;;;;;;;1.05;0.60;;;19.20;37.80;;;;;;8361523;28;20502;-48
2024/02/25 02:27:01;;;;;;;0.57;0.50;;;19.20;37.70;;;;;;8361821;28;20124;-51
2024/02/25 02:31:02;;;;;;;0.63;0.50;;;19.20;37.70;;;;;;8361738;28;20036;-49
2024/02/25 02:35:03;;;;;;;1.05;0.60;;;19.20;39.00;;;;;;8361484;28;20041;-50
2024/02/25 02:39:04;;;;;;;0.57;0.45;;;19.00;39.20;;;;;;8360991;28;20037;-52
2024/02/25 02:43:05;;;;;;;0.63;0.50;;;19.00;39.10;;;;;;8359817;28;20068;-52
2024/02/25 02:47:06;;;;;;;1.80;1.08;;;19.00;38.60;;;;;;8361048;28;20040;-51
2024/02/25 02:51:08;;;;;;;0.73;0.50;;;19.00;38.40;;;;;;8360742;28;20033;-52
2024/02/25 02:55:09;;;;;;;0.50;0.50;;;19.10;38.20;;;;;;8360901;28;20444;-50
2024/02/25 02:59:10;;;;;;;0.80;0.65;;;19.10;38.10;;;;;;8360516;28;20442;-49
2024/02/25 03:03:11;;;;;;;0.60;0.40;;;19.10;38.00;;;;;;8360267;28;20094;-50
2024/02/25 03:07:11;;;;;;;0.43;0.40;;;19.10;37.90;;;;;;8360530;28;20529;-49
2024/02/25 03:11:13;;;;;;;0.83;0.60;;;19.10;37.80;;;;;;8358707;28;20033;-51
2024/02/25 03:15:14;;;;;;;1.20;0.57;;;19.10;37.80;;;;;;8359346;28;20741;-50
2024/02/25 03:19:14;;;;;;;0.90;0.52;;;19.10;37.70;;;;;;8360180;28;20455;-51
2024/02/25 03:23:15;;;;;;;0.40;0.40;;;19.10;38.60;;;;;;8359754;28;20033;-53
2024/02/25 03:27:16;;;;;;;0.50;0.45;;;19.00;39.20;;;;;;8359262;28;20040;-53
2024/02/25 03:31:17;;;;;;;0.52;0.47;;;18.90;39.00;;;;;;8359643;28;20037;-53
2024/02/25 03:35:17;;;;;;;0.45;0.35;;;19.00;38.60;;;;;;8359773;28;20474;-52
2024/02/25 03:39:18;;;;;;;0.30;0.30;;;19.10;38.40;;;;;;8359603;28;20041;-53
2024/02/25 03:43:19;;;;;;;0.50;0.50;;;19.10;38.20;;;;;;8359471;28;20132;-54
2024/02/25 03:47:20;;;;;;;0.57;0.57;;;19.10;38.00;;;;;;8359399;28;20037;-53
2024/02/25 03:51:21;;;;;;;0.60;0.50;;;19.10;37.90;;;;;;8359664;28;20048;-53
2024/02/25 03:55:21;;;;;;;0.85;0.52;;;19.10;37.80;;;;;;8359320;28;20040;-52
2024/02/25 03:59:22;;;;;;;0.50;0.50;;;19.10;37.80;;;;;;8325077;28;20064;-54
2024/02/25 04:03:23;;;;;;;0.60;0.60;;;19.10;37.70;;;;;;8326290;28;20030;-51
2024/02/25 04:07:23;;;;;;;0.65;0.60;;;19.20;37.70;;;;;;8326097;28;20284;-53
2024/02/25 04:11:24;;;;;;;0.52;0.50;;;19.10;38.50;;;;;;8324847;28;20060;-54
2024/02/25 04:15:25;;;;;;;0.70;0.70;;;19.00;39.20;;;;;;8326173;28;20033;-53
2024/02/25 04:19:25;;;;;;;0.47;0.47;;;18.90;38.90;;;;;;8325941;28;20653;-53
2024/02/25 04:23:26;;;;;;;0.82;0.55;;;19.00;38.50;;;;;;8326050;28;20283;-54
2024/02/25 04:27:27;;;;;;;0.63;0.50;;;19.00;38.20;;;;;;8340615;28;20033;-51
2024/02/25 04:31:27;;;;;;;0.50;0.50;;;19.10;38.10;;;;;;8358809;28;20071;-53
2024/02/25 04:35:28;;;;;;;0.60;0.60;;;19.10;37.90;;;;;;8359104;28;20491;-55
2024/02/25 04:39:29;;;;;;;0.50;0.50;;;19.10;37.80;;;;;;8362673;28;20090;-55
2024/02/25 04:43:30;;;;;;;0.50;0.50;;;19.10;37.70;;;;;;8364423;28;20120;-56
2024/02/25 04:47:31;;;;;;;0.63;0.57;;;19.10;37.70;;;;;;8364605;28;20041;-55
2024/02/25 04:51:35;;;;;;;0.43;0.40;;;19.10;37.60;;;;;;8364499;28;20291;-55
2024/02/25 04:55:36;;;;;;;0.45;0.43;;;19.10;37.50;;;;;;8362968;28;20040;-53
2024/02/25 04:59:37;;;;;;;0.87;0.60;;;19.10;38.60;;;;;;8364419;28;20039;-55
2024/02/25 05:03:37;;;;;;;0.60;0.50;;;18.90;39.10;;;;;;8364054;28;20378;-55
2024/02/25 05:07:38;;;;;;;0.60;0.50;;;19.00;38.80;;;;;;8363924;28;20029;-55
2024/02/25 05:11:39;;;;;;;0.38;0.38;;;19.00;38.40;;;;;;8363733;28;20658;-54
2024/02/25 05:15:39;;;;;;;0.60;0.60;;;19.00;38.20;;;;;;8363662;28;20399;-54
2024/02/25 05:19:40;;;;;;;0.50;0.50;;;19.10;38.00;;;;;;8363792;28;20028;-56
2024/02/25 05:23:41;;;;;;;0.60;0.55;;;19.10;37.90;;;;;;8363413;28;20032;-56
2024/02/25 05:27:42;;;;;;;0.40;0.40;;;19.10;37.90;;;;;;8363038;28;20388;-55
2024/02/25 05:31:43;;;;;;;0.57;0.57;;;19.10;37.70;;;;;;8363230;28;20064;-56
2024/02/25 05:35:44;;;;;;;0.82;0.60;;;19.10;37.70;;;;;;8361965;28;20418;-55
2024/02/25 05:39:44;;;;;;;0.30;0.30;;;19.10;37.60;;;;;;8362952;28;20045;-54
2024/02/25 05:43:45;;;;;;;0.50;0.50;;;19.10;37.60;;;;;;8362548;28;20038;-53
2024/02/25 05:47:45;;;;;;;0.40;0.40;;;19.00;38.70;;;;;;8362602;28;20325;-55
2024/02/25 05:51:46;;;;;;;0.30;0.30;;;18.90;39.20;;;;;;8362151;28;20044;-55
2024/02/25 05:55:47;;;;;;;0.52;0.52;;;18.90;38.70;;;;;;8362591;28;20065;-53
2024/02/25 05:59:48;;;;;;;0.40;0.40;;;18.90;38.40;;;;;;8362319;28;20025;-54
2024/02/25 06:03:49;;;;;;;0.45;0.40;;;19.00;38.20;;;;;;8362371;28;20044;-56
2024/02/25 06:07:49;;;;;;;0.68;0.50;;;19.00;38.00;;;;;;8362595;28;20068;-55
2024/02/25 06:11:50;;;;;;;0.93;0.50;;;19.00;37.90;;;;;;8360326;28;20057;-56
2024/02/25 06:15:51;;;;;;;0.50;0.50;;;19.10;37.80;;;;;;8360696;28;20112;-55
2024/02/25 06:19:51;;;;;;;0.50;0.50;;;19.10;37.70;;;;;;8361654;28;20041;-55
2024/02/25 06:23:52;;;;;;;0.50;0.50;;;19.10;37.60;;;;;;8361490;28;20704;-55
2024/02/25 06:27:53;;;;;;;0.40;0.40;;;19.20;37.50;;;;;;8361333;28;20028;-53
2024/02/25 06:31:56;;;;;;;0.63;0.50;;;19.20;37.30;;;;;;8361270;28;20048;-56
2024/02/25 06:35:57;;;;;;;0.68;0.35;;;19.20;38.50;;;;;;8361247;28;20036;-54
2024/02/25 06:39:58;;;;;;;0.73;0.40;;;19.10;38.90;;;;;;8360975;28;20037;-55
2024/02/25 06:43:59;;;;;;;0.47;0.47;;;19.10;38.30;;;;;;8361001;28;20287;-56
2024/02/25 06:48:00;;;;;;;0.40;0.40;;;19.20;37.90;;;;;;8359584;28;20294;-56
2024/02/25 06:52:03;;;;;;;0.33;0.33;;;19.20;37.70;;;;;;8360536;28;20119;-55
2024/02/25 06:56:04;;;;;;;0.57;0.40;;;19.30;37.60;;;;;;8361077;28;20286;-49
2024/02/25 07:00:07;;;;;;;0.40;0.40;;;19.30;37.50;;;;;;8360987;28;20045;-52
2024/02/25 07:04:08;;;;;;;0.50;0.50;;;19.30;37.40;;;;;;8359469;28;20032;-50
2024/02/25 07:08:09;;;;;;;0.52;0.52;;;19.30;37.30;;;;;;8360515;28;20059;-51
2024/02/25 07:12:12;;;;;;;0.35;0.35;;;19.30;37.30;;;;;;8359786;28;20049;-49
2024/02/25 07:16:13;;;;;;;0.52;0.52;;;19.30;37.20;;;;;;8360117;28;20037;-49
2024/02/25 07:20:14;;;;;;;;;;;19.30;37.10;;;;;;8360637;28;20037;-50
2024/02/25 07:24:14;;;;;;;0.50;0.43;;;19.30;38.50;;;;;;8359795;28;20000;-52
2024/02/25 07:28:15;;;;;;;0.47;0.47;;;19.10;38.70;;;;;;8360096;28;20040;-51
2024/02/25 07:32:16;;;;;;;0.57;0.55;;;19.20;38.20;;;;;;8359812;28;20290;-51
2024/02/25 07:36:17;;;;;;;0.43;0.43;;;19.30;37.80;;;;;;8359740;28;20033;-52
2024/02/25 07:40:17;;;;;;;0.77;0.77;;;19.30;37.60;;;;;;8359943;28;20036;-51
2024/02/25 07:44:18;;;;;;;0.50;0.50;;;19.30;37.50;;;;;;8359338;28;20479;-51
2024/02/25 07:48:19;;;;;;;0.77;0.57;;;19.30;37.40;;;;;;8359529;28;20043;-51
2024/02/25 07:52:19;;;;;;;0.55;0.47;;;19.30;37.30;;;;;;8358616;28;20082;-49
2024/02/25 07:56:22;;;;;;;0.40;0.40;;;19.30;37.30;;;;;;8359333;28;20041;-48
2024/02/25 08:00:23;;;;;;;0.50;0.40;;;19.30;37.20;;;;;;8359126;28;20116;-49
2024/02/25 08:04:23;;;;;;;0.45;0.32;;;19.30;37.10;;;;;;8359758;28;20040;-52
2024/02/25 08:08:24;;;;;;;0.40;0.40;;;19.40;37.10;;;;;;8359228;28;20555;-51
2024/02/25 08:12:25;;;;;;;0.40;0.40;;;19.30;38.50;;;;;;8360477;28;20057;-51
2024/02/25 08:16:30;;;;;;;0.40;0.40;;;19.20;38.70;;;;;;8365793;28;20045;-53
2024/02/25 08:20:32;;;;;;;0.60;0.38;;;19.20;38.00;;;;;;8365547;28;20041;-52
2024/02/25 08:24:33;;;;;;;0.45;0.40;;;19.20;38.20;;;;;;8365668;28;20479;-54
2024/02/25 08:28:35;;;;;;;0.40;0.40;;;19.40;37.60;;;;;;8365225;28;20397;-54
2024/02/25 08:32:36;;;;;;;0.47;0.38;;;19.30;37.40;;;;;;8364927;28;20421;-52
2024/02/25 08:36:37;;;;;;;0.52;0.40;;;19.30;37.30;;;;;;8364994;28;20099;-54
2024/02/25 08:40:37;;;;;;;0.63;0.50;;;19.30;37.30;;;;;;8365152;28;20036;-54
2024/02/25 08:44:38;;;;;;;0.40;0.40;;;19.40;37.30;;;;;;8364497;28;20032;-54
2024/02/25 08:48:38;;;;;;;0.50;0.50;;;19.40;37.30;;;;;;8364665;28;20028;-53
2024/02/25 08:52:39;;;;;;;0.55;0.55;;;19.40;37.20;;;;;;8364620;28;20032;-53
2024/02/25 08:56:40;;;;;;;0.55;0.55;;;19.30;37.40;;;;;;8364094;28;20029;-53
2024/02/25 09:00:44;;;;;;;0.50;0.50;;;19.20;38.50;;;;;;8363219;28;20044;-54
2024/02/25 09:04:45;;;;;;;0.52;0.50;;;19.10;38.60;;;;;;8364187;28;20287;-54
2024/02/25 09:08:46;;;;;;;0.50;0.40;;;19.20;38.00;;;;;;8364108;28;20033;-54
2024/02/25 09:12:48;;;;;;;0.40;0.40;;;19.30;37.70;;;;;;8363843;28;20056;-54
2024/02/25 09:16:49;;;;;;;0.47;0.47;;;19.30;37.50;;;;;;8363729;28;20420;-50
2024/02/25 09:20:50;;;;;;;0.32;0.32;;;19.40;37.40;;;;;;8363911;28;20029;-51
2024/02/25 09:24:50;;;;;;;0.70;0.70;;;19.40;37.30;;;;;;8362523;28;20086;-50
2024/02/25 09:28:51;;;;;;;0.40;0.40;;;19.40;37.30;;;;;;8362235;28;20391;-51
2024/02/25 09:32:52;;;;;;;0.40;0.40;;;19.40;37.20;;;;;;8363233;28;20313;-51
2024/02/25 09:36:52;;;;;;;1.40;0.60;;;19.40;37.10;;;;;;8362972;28;20029;-51
2024/02/25 09:41:01;;;;;;;0.70;0.50;;;19.40;37.10;;;;;;8362933;28;20037;-53
2024/02/25 09:45:02;;;;;;;0.50;0.50;;;19.40;38.20;;;;;;8362876;28;20475;-53
2024/02/25 09:49:06;;;;;;;0.50;0.47;;;19.30;38.50;;;;;;8362542;28;20565;-51
2024/02/25 09:53:07;;;;;;;0.73;0.68;;;19.20;38.40;;;;;;8362544;28;20585;-52
2024/02/25 09:57:08;;;;;;;0.32;0.32;;;19.20;37.90;;;;;;8362334;28;20392;-51
2024/02/25 10:01:08;;;;;;;0.32;0.32;;;19.30;37.60;;;;;;8362217;28;20104;-53
2024/02/25 10:05:14;;;;;;;0.88;0.50;;;19.30;37.50;;;;;;8362454;28;20037;-51
2024/02/25 10:09:28;;;;;;;0.57;0.38;;;19.30;37.30;;;;;;8361780;28;20033;-52
2024/02/25 10:13:29;;;;;;;0.43;0.43;;;19.30;37.30;;;;;;8361698;28;20410;-50
2024/02/25 10:17:33;;;;;;;0.45;0.45;;;19.30;37.30;;;;;;8361808;28;20086;-50
2024/02/25 10:21:35;;;;;;;0.40;0.40;;;19.30;37.20;;;;;;8361514;28;20060;-51
2024/02/25 10:25:39;;;;;;;0.43;0.43;;;19.30;37.10;;;;;;8361913;28;20025;-51
2024/02/25 10:29:54;;;;;;;0.63;0.40;;;19.30;37.10;;;;;;8361749;28;20028;-51
2024/02/25 10:33:59;;;;;;;0.50;0.40;;;19.30;38.10;;;;;;8361302;28;20082;-51
2024/02/25 10:38:00;;;;;;;0.68;0.60;;;19.20;38.60;;;;;;8361030;28;20398;-51
2024/02/25 10:42:01;;;;;;;0.50;0.40;;;19.20;38.20;;;;;;8361047;28;20083;-51
2024/02/25 10:46:18;;;;;;;0.50;0.40;;;19.30;37.80;;;;;;8360753;28;20041;-52
2024/02/25 10:50:20;;;;;;;0.50;0.50;;;19.30;37.50;;;;;;8360981;28;20441;-51
2024/02/25 10:54:22;;;;;;;0.60;0.52;;;19.30;37.40;;;;;;8360741;28;20499;-52
2024/02/25 10:58:23;;;;;;;0.38;0.38;;;19.40;37.30;;;;;;8360541;28;20064;-53
2024/02/25 11:02:26;;;;;;;;;;;19.40;37.20;;;;;;8361226;28;20032;-52
2024/02/25 11:06:32;;;;;;;0.30;0.30;;;19.40;37.20;;;;;;8360307;28;19909;-51
2024/02/25 11:10:33;;;;;;;0.43;0.32;;;19.40;37.10;;;;;;8360363;28;20086;-52
2024/02/25 11:14:36;;;;;;;0.40;0.40;;;19.40;37.10;;;;;;8360120;28;20057;-51
2024/02/25 11:18:45;;;;;;;0.38;0.30;;;19.40;37.00;;;;;;8359827;28;20372;-50
2024/02/25 11:22:49;;;;;;;0.50;0.50;;;19.30;38.20;;;;;;8359005;28;20146;-52
2024/02/25 11:26:55;;;;;;;0.40;0.40;;;19.20;38.60;;;;;;8359684;28;20056;-51
2024/02/25 11:30:55;;;;;;;0.45;0.45;;;19.20;38.00;;;;;;8360042;28;20033;-50
2024/02/25 11:34:59;;;;;;;0.40;0.40;;;19.30;37.70;;;;;;8359942;28;20107;-55
2024/02/25 11:39:03;;;;;;;0.40;0.40;;;19.30;37.50;;;;;;8359388;28;20095;-56
2024/02/25 11:43:05;;;;;;;0.30;0.30;;;19.30;37.40;;;;;;8359707;28;20064;-54
2024/02/25 11:47:08;;;;;;;0.35;0.35;;;19.30;37.40;;;;;;8359920;28;20095;-56
2024/02/25 11:51:08;;;;;;;0.50;0.50;;;19.30;37.30;;;;;;8366364;28;20100;-54
2024/02/25 11:55:09;;;;;;;0.30;0.30;;;19.30;37.20;;;;;;8366410;28;20044;-55
2024/02/25 11:59:11;;;;;;;0.73;0.50;;;19.30;37.20;;;;;;8365844;28;20048;-56
2024/02/25 12:03:12;;;;;;;0.32;0.30;;;19.30;37.20;;;;;;8365908;28;20032;-55
2024/02/25 12:07:13;;;;;;;0.30;0.30;;;19.30;37.10;;;;;;8366150;28;20116;-56
2024/02/25 12:11:15;;;;;;;0.30;0.30;;;19.20;38.30;;;;;;8365556;28;20183;-55
2024/02/25 12:15:16;;;;;;;0.60;0.40;;;19.10;38.70;;;;;;8365628;28;20051;-54
2024/02/25 12:19:18;;;;;;;0.30;0.30;;;19.10;38.00;;;;;;8365652;28;20041;-55
2024/02/25 12:23:20;;;;;;;0.40;0.40;;;19.20;37.80;;;;;;8365072;28;20461;-56
2024/02/25 12:27:21;;;;;;;0.40;0.32;;;19.30;37.70;;;;;;8365215;28;20036;-56
2024/02/25 12:31:22;;;;;;;0.75;0.45;;;19.20;37.50;;;;;;8365008;28;20029;-56
2024/02/25 12:35:23;;;;;;;0.47;0.47;;;19.30;37.50;;;;;;8365106;28;20502;-55
2024/02/25 12:39:26;;;;;;;0.38;0.30;;;19.30;37.30;;;;;;8363636;28;20064;-56
2024/02/25 12:43:27;;;;;;;0.35;0.35;;;19.30;37.30;;;;;;8364547;28;20037;-56
2024/02/25 12:47:29;;;;;;;0.52;0.40;;;19.20;37.20;;;;;;8364861;28;20037;-50
2024/02/25 12:51:29;;;;;;;0.25;0.25;;;19.30;37.20;;;;;;8364450;28;20044;-51
2024/02/25 12:55:30;;;;;;;0.40;0.40;;;19.30;37.20;;;;;;8364458;28;20060;-51
2024/02/25 12:59:32;;;;;;;0.47;0.47;;;19.20;38.40;;;;;;8361542;28;20399;-51
2024/02/25 13:03:32;;;;;;;0.40;0.40;;;19.10;38.50;;;;;;8364177;28;20037;-49
2024/02/25 13:07:34;;;;;;;0.47;0.32;;;19.10;38.00;;;;;;8363961;28;20041;-52
2024/02/25 13:11:35;;;;;;;0.45;0.40;;;19.20;37.70;;;;;;8363818;28;20518;-51
2024/02/25 13:15:36;;;;;;;0.47;0.38;;;19.20;37.50;;;;;;8364002;28;20556;-49
2024/02/25 13:19:37;;;;;;;0.50;0.50;;;19.30;37.50;;;;;;8363580;28;20605;-51
2024/02/25 13:23:38;;;;;;;;;;;19.30;37.40;;;;;;8364050;28;20100;-52
2024/02/25 13:27:38;;;;;;;0.33;0.30;;;19.30;37.30;;;;;;8363875;28;19951;-50
2024/02/25 13:31:39;;;;;;;0.40;0.40;;;19.30;37.20;;;;;;8363357;28;20037;-52
2024/02/25 13:35:40;;;;;;;0.30;0.30;;;19.30;37.10;;;;;;8363272;28;20479;-50
2024/02/25 13:39:42;;;;;;;0.50;0.40;;;19.30;37.10;;;;;;8363091;28;20025;-51
2024/02/25 13:43:44;;;;;;;0.20;0.20;;;19.30;37.40;;;;;;8363258;28;20061;-49
2024/02/25 13:47:45;;;;;;;0.30;0.30;;;19.20;38.50;;;;;;8362679;28;20162;-50
2024/02/25 13:51:46;;;;;;;0.30;0.30;;;19.10;38.50;;;;;;8362260;28;20482;-50
2024/02/25 13:55:48;;;;;;;0.33;0.33;;;19.20;38.00;;;;;;8362686;28;20037;-51
2024/02/25 13:59:49;;;;;;;0.40;0.30;;;19.20;37.70;;;;;;8362350;28;20032;-50
2024/02/25 14:03:50;;;;;;;0.30;0.30;;;19.20;37.50;;;;;;8362511;28;20037;-50
2024/02/25 14:07:51;;;;;;;0.50;0.40;;;19.30;37.40;;;;;;8362341;28;20294;-49
2024/02/25 14:11:51;;;;;;;0.30;0.30;;;19.30;37.30;;;;;;8362158;28;20704;-50
2024/02/25 14:15:52;;;;;;;0.30;0.30;;;19.20;37.20;;;;;;8360753;28;20033;-50
2024/02/25 14:19:53;;;;;;;0.30;0.30;;;19.30;37.20;;;;;;8361881;28;20394;-52
2024/02/25 14:23:54;;;;;;;0.30;0.30;;;19.30;37.10;;;;;;8361705;28;20029;-51
2024/02/25 14:27:55;;;;;;;0.30;0.30;;;19.30;37.10;;;;;;8361618;28;20094;-51
2024/02/25 14:31:57;;;;;;;0.32;0.30;;;19.30;37.80;;;;;;8361392;28;20119;-51
2024/02/25 14:36:00;;;;;;;0.20;0.20;;;19.10;38.50;;;;;;8361258;28;20032;-49
2024/02/25 14:40:00;;;;;;;0.40;0.40;;;19.10;38.50;;;;;;8361453;28;20029;-50
2024/02/25 14:44:01;;;;;;;0.20;0.20;;;19.10;37.90;;;;;;8360810;28;20041;-51
2024/02/25 14:48:03;;;;;;;0.30;0.30;;;19.20;37.70;;;;;;8360971;28;20348;-52
2024/02/25 14:52:04;;;;;;;0.30;0.30;;;19.20;37.60;;;;;;8360837;28;20434;-51
2024/02/25 14:56:05;;;;;;;0.30;0.30;;;19.20;37.40;;;;;;8360676;28;20094;-51
2024/02/25 15:00:12;;;;;;;0.50;0.50;;;19.20;37.30;;;;;;8360765;28;20060;-49
2024/02/25 15:04:13;;;;;;;0.30;0.30;;;19.30;37.30;;;;;;8359309;28;20035;-52
2024/02/25 15:08:13;;;;;;;0.35;0.35;;;19.30;37.20;;;;;;8360099;28;20033;-51
2024/02/25 15:12:15;;;;;;;0.30;0.30;;;19.30;37.20;;;;;;8360274;28;20510;-52
2024/02/25 15:16:16;;;;;;;0.30;0.30;;;19.30;37.10;;;;;;8360883;28;20033;-50
2024/02/25 15:20:17;;;;;;;0.38;0.28;;;19.20;37.90;;;;;;8360660;28;20048;-50
2024/02/25 15:24:18;;;;;;;0.30;0.30;;;19.10;38.60;;;;;;8359505;28;20025;-49
2024/02/25 15:28:19;;;;;;;0.38;0.38;;;19.10;38.40;;;;;;8359888;28;20037;-51
2024/02/25 15:32:21;;;;;;;0.30;0.30;;;19.10;37.80;;;;;;8360064;28;20033;-50
2024/02/25 15:36:22;;;;;;;0.30;0.20;;;19.20;37.70;;;;;;8359958;28;20159;-49
2024/02/25 15:40:25;;;;;;;0.40;0.40;;;19.20;37.50;;;;;;8359659;28;20033;-51
2024/02/25 15:44:26;;;;;;;0.10;0.10;;;19.20;37.30;;;;;;8359845;28;20079;-53
2024/02/25 15:48:27;;;;;;;0.30;0.30;;;19.30;37.30;;;;;;8359625;28;20056;-49
2024/02/25 15:52:28;;;;;;;0.40;0.30;;;19.30;37.20;;;;;;8358164;28;20032;-52
2024/02/25 15:56:29;;;;;;;0.43;0.30;;;19.30;37.10;;;;;;8359425;28;20036;-52
2024/02/25 16:00:29;;;;;;;0.43;0.40;;;19.30;37.10;;;;;;8359413;28;20406;-52
2024/02/25 16:04:30;;;;;;;0.20;0.20;;;19.20;37.00;;;;;;8359923;28;20057;-53
2024/02/25 16:08:31;;;;;;;0.20;0.20;;;19.20;38.00;;;;;;8359395;28;20039;-49
2024/02/25 16:12:32;;;;;;;0.38;0.30;;;19.10;38.50;;;;;;8358823;28;20053;-49
2024/02/25 16:16:33;;;;;;;0.22;0.22;;;19.10;38.20;;;;;;8359079;28;20115;-55
2024/02/25 16:20:38;;;;;;;0.30;0.30;;;19.10;37.80;;;;;;8359321;28;20037;-54
2024/02/25 16:24:39;;;;;;;0.20;0.20;;;19.20;37.60;;;;;;8358844;28;20033;-55
2024/02/25 16:28:39;;;;;;;0.20;0.20;;;19.20;37.40;;;;;;8358684;28;20029;-55
2024/02/25 16:32:40;;;;;;;0.30;0.30;;;19.20;37.30;;;;;;8358941;28;20043;-53
2024/02/25 16:36:41;;;;;;;0.30;0.30;;;19.30;37.30;;;;;;8364880;28;20434;-54
2024/02/25 16:40:42;;;;;;;0.17;0.17;;;19.30;37.20;;;;;;8364700;28;20065;-55
2024/02/25 16:44:44;;;;;;;0.40;0.32;;;19.30;37.10;;;;;;8365048;28;20045;-55
2024/02/25 16:48:44;;;;;;;0.30;0.30;;;19.30;37.00;;;;;;8364922;28;20438;-55
2024/02/25 16:52:45;;;;;;;0.20;0.20;;;19.30;37.00;;;;;;8331096;28;20033;-55
2024/02/25 16:56:49;;;;;;;0.30;0.30;;;19.20;38.00;;;;;;8364304;28;20129;-53
2024/02/25 17:00:50;;;;;;;0.30;0.20;;;19.10;38.50;;;;;;8363955;28;20025;-55
2024/02/25 17:04:50;;;;;;;0.20;0.20;;;19.10;38.10;;;;;;8345141;28;20028;-55
2024/02/25 17:08:51;;;;;;;1.98;0.40;;;19.10;38.10;;;;;;8362143;28;20157;-56
2024/02/25 17:12:56;;;;;;;0.20;0.20;;;19.20;38.30;;;;;;8343760;28;20469;-56
2024/02/25 17:16:58;;;;;;;1.85;0.30;;;19.20;38.40;;;;;;8331432;28;20280;-55
2024/02/25 17:21:02;;;;;;;0.30;0.30;;;19.30;38.40;;;;;;8345798;28;20105;-53
2024/02/25 17:25:03;;;;;;;0.35;0.35;;;19.30;38.30;;;;;;8363112;28;20033;-56
2024/02/25 17:29:04;;;;;;;0.95;0.32;;;19.30;38.20;;;;;;8341938;28;20060;-56
2024/02/25 17:33:06;;;;;;;1.35;0.40;;;19.30;38.10;;;;;;8340782;28;20057;-56
2024/02/25 17:37:09;;;;;;;0.50;0.30;;;19.40;38.20;;;;;;8363642;28;20399;-55
2024/02/25 17:41:12;;;;;;;1.17;0.50;;;19.40;38.10;;;;;;8362910;28;20313;-55
2024/02/25 17:45:13;;;;;;;5.93;0.57;;;19.40;39.30;;;;;;8362986;28;20017;-56
2024/02/25 17:49:14;;;;;;;0.95;0.40;;;19.30;39.60;;;;;;8363690;28;20032;-55
2024/02/25 17:53:20;;;;;;;;;;;19.30;39.00;;;;;;8364297;28;20052;-54
2024/02/25 17:57:21;;;;;;;0.55;0.20;;;19.40;38.60;;;;;;8363536;28;19921;-55
2024/02/25 18:01:22;;;;;;;0.35;0.35;;;19.40;38.40;;;;;;8363165;28;20086;-55
2024/02/25 18:05:23;;;;;;;0.70;0.40;;;19.50;38.20;;;;;;8362700;28;20053;-55
2024/02/25 18:09:24;;;;;;;0.55;0.32;;;19.50;38.10;;;;;;8362999;28;20719;-55
2024/02/25 18:13:25;;;;;;;0.90;0.40;;;19.60;38.00;;;;;;8333822;28;20058;-54
2024/02/25 18:17:26;;;;;;;0.20;0.20;;;19.60;37.90;;;;;;8329463;28;20041;-55
2024/02/25 18:21:26;;;;;;;0.63;0.40;;;19.60;37.90;;;;;;8329643;28;20064;-57
2024/02/25 18:25:27;;;;;;;0.30;0.30;;;19.60;37.80;;;;;;8329323;28;20040;-55
2024/02/25 18:29:28;;;;;;;1.27;0.40;;;19.60;37.80;;;;;;8349068;28;20368;-53
2024/02/25 18:33:30;;;;;;;1.90;0.30;;;19.50;39.00;;;;;;8338351;28;20120;-56
2024/02/25 18:37:32;;;;;;;0.30;0.30;;;19.40;39.30;;;;;;8349205;28;20302;-56
2024/02/25 18:41:33;;;;;;;0.88;0.38;;;19.50;38.80;;;;;;8361890;28;20182;-56
2024/02/25 18:45:33;;;;;;;2.03;0.65;;;19.50;38.50;;;;;;8345249;28;20030;-56
2024/02/25 18:49:38;;;;;;;0.50;0.33;;;19.60;38.20;;;;;;8328797;28;20080;-56
2024/02/25 18:53:39;;;;;;;0.85;0.45;;;19.60;38.00;;;;;;8328549;28;20284;-54
2024/02/25 18:57:40;;;;;;;1.48;0.40;;;19.60;37.90;;;;;;8345020;28;20082;-54
2024/02/25 19:01:44;;;;;;;0.80;0.30;;;19.60;37.70;;;;;;8352637;28;20491;-55
2024/02/25 19:05:44;;;;;;;4.22;0.50;;;19.60;37.60;;;;;;8359559;28;20029;-56
2024/02/25 19:09:45;;;;;;;2.63;0.50;;;19.60;37.60;;;;;;8361307;28;20029;-55
2024/02/25 19:13:46;;;;;;;1.45;0.40;;;19.70;37.60;;;;;;8330546;28;20465;-55
2024/02/25 19:17:46;;;;;;;2.95;0.40;;;19.70;37.50;;;;;;8327792;28;20038;-55
2024/02/25 19:21:47;;;;;;;0.50;0.40;;;19.60;38.70;;;;;;8327934;28;20053;-55
2024/02/25 19:25:48;;;;;;;0.55;0.52;;;19.50;39.00;;;;;;8329029;28;20044;-53
2024/02/25 19:29:50;;;;;;;0.40;0.40;;;19.50;38.40;;;;;;8338352;28;20065;-55
2024/02/25 19:33:50;;;;;;;2.58;0.40;;;19.50;38.10;;;;;;8341837;28;20523;-54
2024/02/25 19:37:51;;;;;;;0.45;0.38;;;19.60;38.10;;;;;;8335046;28;20407;-55
2024/02/25 19:41:52;;;;;;;1.33;0.30;;;19.60;37.90;;;;;;8326274;28;20087;-55
2024/02/25 19:45:53;;;;;;;1.30;0.57;;;19.60;37.80;;;;;;8327565;28;20030;-51
2024/02/25 19:49:54;;;;;;;0.85;0.60;;;19.60;37.70;;;;;;8327423;28;20487;-48
2024/02/25 19:53:54;;;;;;;0.63;0.30;;;19.60;37.60;;;;;;8327309;28;20431;-48
2024/02/25 19:57:55;;;;;;;0.98;0.57;;;19.60;37.50;;;;;;8343768;28;20710;-50
2024/02/25 20:01:56;;;;;;;3.25;0.45;;;19.70;37.60;;;;;;8343891;28;20068;-49
2024/02/25 20:05:57;;;;;;;2.58;0.52;;;19.60;37.90;;;;;;8346006;28;20518;-50
2024/02/25 20:09:58;;;;;;;3.67;0.82;;;19.60;38.90;;;;;;8330748;28;20087;-50
2024/02/25 20:13:58;;;;;;;0.57;0.30;;;19.50;39.00;;;;;;8355468;28;20045;-50
2024/02/25 20:17:59;;;;;;;0.38;0.30;;;19.50;38.40;;;;;;8333384;28;20052;-51
2024/02/25 20:22:00;;;;;;;1.70;0.60;;;19.60;38.20;;;;;;8333360;28;20021;-52
2024/02/25 20:26:01;;;;;;;1.90;0.30;;;19.70;38.10;;;;;;8335965;28;20037;-50
2024/02/25 20:30:01;;;;;;;0.55;0.32;;;19.60;37.90;;;;;;8345041;28;20037;-51
2024/02/25 20:34:02;;;;;;;1.80;0.45;;;19.60;37.80;;;;;;8332994;28;20382;-50
2024/02/25 20:38:03;;;;;;;1.10;0.30;;;19.70;37.80;;;;;;8332635;28;20033;-50
2024/02/25 20:42:04;;;;;;;0.85;0.40;;;19.70;37.70;;;;;;8333152;28;20121;-50
2024/02/25 20:46:12;;;;;;;1.83;0.50;;;19.70;37.70;;;;;;8332333;28;20030;-51
2024/02/25 20:50:13;;;;;;;2.10;0.40;;;19.70;37.70;;;;;;8332319;28;20114;-50
2024/02/25 20:54:13;;;;;;;4.88;0.40;;;19.70;38.30;;;;;;8361923;28;20033;-50
2024/02/25 20:58:16;;;;;;;2.50;0.63;;;19.70;39.10;;;;;;8365344;28;20025;-53